sensor_id;sensor_type;location;lat;lon;timestamp;pressure;altitude;pressure_sealevel;temperature;humidity
36354;BME280;22383;51.114;13.666;2023-11-21T00:02:27;67901.22;;;6.48;100.00
36354;BME280;22383;51.114;13.666;2023-11-21T00:04:55;67908.19;;;6.49;100.00
36354;BME280;22383;51.114;13.666;2023-11-21T00:07:22;67905.34;;;6.47;100.00
36354;BME280;22383;51.114;13.666;2023-11-21T00:09:49;67902.53;;;6.44;100.00
36354;BME280;22383;51.114;13.666;2023-11-21T00:12:16;67902.72;;;6.47;100.00
36354;BME280;22383;51.114;13.666;2023-11-21T00:14:44;67909.88;;;6.51;100.00
36354;BME280;22383;51.114;13.666;2023-11-21T00:17:11;67907.81;;;6.51;100.00
36354;BME280;22383;51.114;13.666;2023-11-21T00:19:38;67908.75;;;6.50;100.00
36354;BME280;22383;51.114;13.666;2023-11-21T00:22:05;67909.88;;;6.51;100.00
36354;BME280;22383;51.114;13.666;2023-11-21T00:24:34;67910.44;;;6.51;100.00
36354;BME280;22383;51.114;13.666;2023-11-21T00:27:01;67907.81;;;6.51;100.00
36354;BME280;22383;51.114;13.666;2023-11-21T00:29:29;67906.66;;;6.50;100.00
36354;BME280;22383;51.114;13.666;2023-11-21T00:31:56;67908.19;;;6.49;100.00
36354;BME280;22383;51.114;13.666;2023-11-21T00:34:23;67906.31;;;6.52;100.00
36354;BME280;22383;51.114;13.666;2023-11-21T00:36:50;67910.44;;;6.51;100.00
36354;BME280;22383;51.114;13.666;2023-11-21T00:39:17;67908.94;;;6.52;100.00
36354;BME280;22383;51.114;13.666;2023-11-21T00:41:44;67910.63;;;6.54;100.00
36354;BME280;22383;51.114;13.666;2023-11-21T00:44:12;67914.94;;;6.55;100.00
36354;BME280;22383;51.114;13.666;2023-11-21T00:46:39;67914.22;;;6.52;100.00
36354;BME280;22383;51.114;13.666;2023-11-21T00:49:06;67909.50;;;6.53;100.00
36354;BME280;22383;51.114;13.666;2023-11-21T00:51:34;67909.50;;;6.53;100.00
36354;BME280;22383;51.114;13.666;2023-11-21T00:54:02;67910.63;;;6.54;100.00
36354;BME280;22383;51.114;13.666;2023-11-21T00:56:30;67909.69;;;6.55;100.00
36354;BME280;22383;51.114;13.666;2023-11-21T00:58:57;67911.75;;;6.55;100.00
36354;BME280;22383;51.114;13.666;2023-11-21T01:01:24;67909.13;;;6.55;100.00
36354;BME280;22383;51.114;13.666;2023-11-21T01:03:52;67906.31;;;6.52;100.00
36354;BME280;22383;51.114;13.666;2023-11-21T01:06:21;67912.13;;;6.53;100.00
36354;BME280;22383;51.114;13.666;2023-11-21T01:08:48;67907.81;;;6.51;100.00
36354;BME280;22383;51.114;13.666;2023-11-21T01:11:15;67903.47;;;6.50;100.00
36354;BME280;22383;51.114;13.666;2023-11-21T01:13:43;67902.38;;;6.49;100.00
36354;BME280;22383;51.114;13.666;2023-11-21T01:16:11;67905.00;;;6.49;100.00
36354;BME280;22383;51.114;13.666;2023-11-21T01:18:40;67912.13;;;6.53;100.00
36354;BME280;22383;51.114;13.666;2023-11-21T01:21:07;67908.19;;;6.49;100.00
36354;BME280;22383;51.114;13.666;2023-11-21T01:23:36;67906.66;;;6.50;100.00
36354;BME280;22383;51.114;13.666;2023-11-21T01:26:03;67903.47;;;6.50;100.00
36354;BME280;22383;51.114;13.666;2023-11-21T01:28:30;67902.16;;;6.46;100.00
36354;BME280;22383;51.114;13.666;2023-11-21T01:30:57;67901.03;;;6.45;100.00
36354;BME280;22383;51.114;13.666;2023-11-21T01:33:25;67901.03;;;6.45;100.00
36354;BME280;22383;51.114;13.666;2023-11-21T01:35:52;67901.59;;;6.46;100.00
36354;BME280;22383;51.114;13.666;2023-11-21T01:38:22;67907.03;;;6.48;100.00
36354;BME280;22383;51.114;13.666;2023-11-21T01:40:49;67902.38;;;6.49;100.00
36354;BME280;22383;51.114;13.666;2023-11-21T01:43:18;67899.75;;;6.49;100.00
36354;BME280;22383;51.114;13.666;2023-11-21T01:45:45;67900.47;;;6.44;100.00
36354;BME280;22383;51.114;13.666;2023-11-21T01:48:13;67903.28;;;6.47;100.00
36354;BME280;22383;51.114;13.666;2023-11-21T01:50:41;67903.66;;;6.45;100.00
36354;BME280;22383;51.114;13.666;2023-11-21T01:53:08;67899.34;;;6.43;100.00
36354;BME280;22383;51.114;13.666;2023-11-21T01:55:36;67896.50;;;6.41;100.00
36354;BME280;22383;51.114;13.666;2023-11-21T01:58:03;67898.75;;;6.43;100.00
36354;BME280;22383;51.114;13.666;2023-11-21T02:00:30;67897.66;;;6.42;100.00
36354;BME280;22383;51.114;13.666;2023-11-21T02:02:58;67901.38;;;6.43;100.00
36354;BME280;22383;51.114;13.666;2023-11-21T02:05:26;67902.38;;;6.49;100.00
36354;BME280;22383;51.114;13.666;2023-11-21T02:07:54;67901.59;;;6.46;100.00
36354;BME280;22383;51.114;13.666;2023-11-21T02:10:21;67896.13;;;6.43;100.00
36354;BME280;22383;51.114;13.666;2023-11-21T02:12:51;67899.91;;;6.44;100.00
36354;BME280;22383;51.114;13.666;2023-11-21T02:15:18;67899.69;;;6.41;100.00
36354;BME280;22383;51.114;13.666;2023-11-21T02:17:49;67895.94;;;6.40;100.00
36354;BME280;22383;51.114;13.666;2023-11-21T02:20:20;67895.38;;;6.40;100.00
36354;BME280;22383;51.114;13.666;2023-11-21T02:22:50;67892.19;;;6.39;100.00
36354;BME280;22383;51.114;13.666;2023-11-21T02:25:20;67892.56;;;6.37;100.00
36354;BME280;22383;51.114;13.666;2023-11-21T02:27:47;67891.78;;;6.34;100.00
36354;BME280;22383;51.114;13.666;2023-11-21T02:30:15;67883.50;;;6.29;100.00
36354;BME280;22383;51.114;13.666;2023-11-21T02:32:43;67882.56;;;6.23;100.00
36354;BME280;22383;51.114;13.666;2023-11-21T02:35:15;67867.69;;;6.15;100.00
36354;BME280;22383;51.114;13.666;2023-11-21T02:37:42;67864.88;;;6.12;100.00
36354;BME280;22383;51.114;13.666;2023-11-21T02:40:10;67858.47;;;6.04;100.00
36354;BME280;22383;51.114;13.666;2023-11-21T02:42:40;67855.84;;;6.04;100.00
36354;BME280;22383;51.114;13.666;2023-11-21T02:45:07;67859.59;;;6.05;100.00
36354;BME280;22383;51.114;13.666;2023-11-21T02:47:34;67855.28;;;6.03;100.00
36354;BME280;22383;51.114;13.666;2023-11-21T02:50:02;67852.44;;;6.01;100.00
36354;BME280;22383;51.114;13.666;2023-11-21T02:52:30;67845.06;;;5.94;100.00
36354;BME280;22383;51.114;13.666;2023-11-21T02:55:00;67845.25;;;5.90;100.00
36354;BME280;22383;51.114;13.666;2023-11-21T02:57:27;67836.97;;;5.84;100.00
36354;BME280;22383;51.114;13.666;2023-11-21T02:59:54;67839.03;;;5.84;100.00
36354;BME280;22383;51.114;13.666;2023-11-21T03:02:22;67832.09;;;5.82;100.00
36354;BME280;22383;51.114;13.666;2023-11-21T03:04:49;67827.94;;;5.76;100.00
36354;BME280;22383;51.114;13.666;2023-11-21T03:07:17;67825.88;;;5.77;100.00
36354;BME280;22383;51.114;13.666;2023-11-21T03:09:46;67829.25;;;5.80;100.00
36354;BME280;22383;51.114;13.666;2023-11-21T03:12:13;67832.28;;;5.85;100.00
36354;BME280;22383;51.114;13.666;2023-11-21T03:14:41;67840.94;;;5.88;100.00
36354;BME280;22383;51.114;13.666;2023-11-21T03:17:08;67839.44;;;5.89;100.00
36354;BME280;22383;51.114;13.666;2023-11-21T03:19:35;67838.88;;;5.88;100.00
36354;BME280;22383;51.114;13.666;2023-11-21T03:22:03;67840.38;;;5.87;100.00
36354;BME280;22383;51.114;13.666;2023-11-21T03:24:31;67837.38;;;5.90;100.00
36354;BME280;22383;51.114;13.666;2023-11-21T03:26:59;67831.16;;;5.84;100.00
36354;BME280;22383;51.114;13.666;2023-11-21T03:29:26;67830.97;;;5.81;100.00
36354;BME280;22383;51.114;13.666;2023-11-21T03:31:53;67832.09;;;5.82;100.00
36354;BME280;22383;51.114;13.666;2023-11-21T03:34:26;67836.06;;;5.86;100.00
36354;BME280;22383;51.114;13.666;2023-11-21T03:36:54;67841.13;;;5.91;100.00
36354;BME280;22383;51.114;13.666;2023-11-21T03:39:22;67840.38;;;5.87;100.00
36354;BME280;22383;51.114;13.666;2023-11-21T03:41:49;67837.75;;;5.87;100.00
36354;BME280;22383;51.114;13.666;2023-11-21T03:44:18;67837.53;;;5.85;100.00
36354;BME280;22383;51.114;13.666;2023-11-21T03:46:45;67832.09;;;5.82;100.00
36354;BME280;22383;51.114;13.666;2023-11-21T03:49:13;67831.16;;;5.84;100.00
36354;BME280;22383;51.114;13.666;2023-11-21T03:51:49;67836.97;;;5.84;100.00
36354;BME280;22383;51.114;13.666;2023-11-21T03:54:16;67838.47;;;5.83;100.00
36354;BME280;22383;51.114;13.666;2023-11-21T03:56:43;67829.84;;;5.80;100.00
36354;BME280;22383;51.114;13.666;2023-11-21T03:59:10;67821.75;;;5.78;100.00
36354;BME280;22383;51.114;13.666;2023-11-21T04:01:38;67822.13;;;5.76;100.00
36354;BME280;22383;51.114;13.666;2023-11-21T04:04:05;67823.41;;;5.72;100.00
36354;BME280;22383;51.114;13.666;2023-11-21T04:06:32;67820.59;;;5.69;100.00
36354;BME280;22383;51.114;13.666;2023-11-21T04:09:00;67820.25;;;5.72;100.00
36354;BME280;22383;51.114;13.666;2023-11-21T04:11:27;67819.66;;;5.71;100.00
36354;BME280;22383;51.114;13.666;2023-11-21T04:13:56;67819.47;;;5.68;100.00
36354;BME280;22383;51.114;13.666;2023-11-21T04:16:24;67816.06;;;5.65;100.00
36354;BME280;22383;51.114;13.666;2023-11-21T04:18:51;67812.31;;;5.64;100.00
36354;BME280;22383;51.114;13.666;2023-11-21T04:21:18;67811.19;;;5.63;100.00
36354;BME280;22383;51.114;13.666;2023-11-21T04:23:45;67814.19;;;5.61;100.00
36354;BME280;22383;51.114;13.666;2023-11-21T04:26:13;67807.25;;;5.60;100.00
36354;BME280;22383;51.114;13.666;2023-11-21T04:28:40;67807.63;;;5.58;100.00
36354;BME280;22383;51.114;13.666;2023-11-21T04:31:07;67809.31;;;5.59;100.00
36354;BME280;22383;51.114;13.666;2023-11-21T04:33:35;67801.78;;;5.57;100.00
36354;BME280;22383;51.114;13.666;2023-11-21T04:36:02;67801.22;;;5.57;100.00
36354;BME280;22383;51.114;13.666;2023-11-21T04:38:29;67807.03;;;5.57;100.00
36354;BME280;22383;51.114;13.666;2023-11-21T04:40:56;67805.56;;;5.58;100.00
36354;BME280;22383;51.114;13.666;2023-11-21T04:43:26;67807.63;;;5.58;100.00
36354;BME280;22383;51.114;13.666;2023-11-21T04:45:54;67801.78;;;5.57;100.00
36354;BME280;22383;51.114;13.666;2023-11-21T04:48:22;67805.56;;;5.58;100.00
36354;BME280;22383;51.114;13.666;2023-11-21T04:50:49;67810.44;;;5.60;100.00
36354;BME280;22383;51.114;13.666;2023-11-21T04:53:16;67808.00;;;5.63;100.00
36354;BME280;22383;51.114;13.666;2023-11-21T04:55:43;67811.19;;;5.63;100.00
36354;BME280;22383;51.114;13.666;2023-11-21T04:58:11;67814.38;;;5.64;100.00
36354;BME280;22383;51.114;13.666;2023-11-21T05:00:39;67815.88;;;5.63;100.00
36354;BME280;22383;51.114;13.666;2023-11-21T05:03:07;67812.69;;;5.62;100.00
36354;BME280;22383;51.114;13.666;2023-11-21T05:05:34;67812.31;;;5.64;100.00
36354;BME280;22383;51.114;13.666;2023-11-21T05:08:01;67808.56;;;5.63;100.00
36354;BME280;22383;51.114;13.666;2023-11-21T05:10:29;67811.19;;;5.63;100.00
36354;BME280;22383;51.114;13.666;2023-11-21T05:12:57;67814.94;;;5.64;100.00
36354;BME280;22383;51.114;13.666;2023-11-21T05:15:25;67814.59;;;5.66;100.00
36354;BME280;22383;51.114;13.666;2023-11-21T05:17:54;67810.81;;;5.65;100.00
36354;BME280;22383;51.114;13.666;2023-11-21T05:20:22;67811.97;;;5.66;100.00
36354;BME280;22383;51.114;13.666;2023-11-21T05:22:50;67814.38;;;5.64;100.00
36354;BME280;22383;51.114;13.666;2023-11-21T05:25:18;67808.38;;;5.61;100.00
36354;BME280;22383;51.114;13.666;2023-11-21T05:27:46;67810.06;;;5.62;100.00
36354;BME280;22383;51.114;13.666;2023-11-21T05:30:13;67811.00;;;5.61;100.00
36354;BME280;22383;51.114;13.666;2023-11-21T05:32:41;67807.25;;;5.60;100.00
36354;BME280;22383;51.114;13.666;2023-11-21T05:35:13;67805.34;;;5.56;100.00
36354;BME280;22383;51.114;13.666;2023-11-21T05:37:44;67805.00;;;5.58;100.00
36354;BME280;22383;51.114;13.666;2023-11-21T05:40:13;67802.72;;;5.56;100.00
36354;BME280;22383;51.114;13.666;2023-11-21T05:42:40;67803.84;;;5.57;100.00
36354;BME280;22383;51.114;13.666;2023-11-21T05:45:08;67811.34;;;5.59;100.00
36354;BME280;22383;51.114;13.666;2023-11-21T05:47:43;67808.19;;;5.58;100.00
36354;BME280;22383;51.114;13.666;2023-11-21T05:50:15;67806.47;;;5.57;100.00
36354;BME280;22383;51.114;13.666;2023-11-21T05:52:44;67803.44;;;5.52;100.00
36354;BME280;22383;51.114;13.666;2023-11-21T05:55:13;67796.88;;;5.48;100.00
36354;BME280;22383;51.114;13.666;2023-11-21T05:57:42;67794.25;;;5.48;100.00
36354;BME280;22383;51.114;13.666;2023-11-21T06:00:12;67788.25;;;5.45;100.00
36354;BME280;22383;51.114;13.666;2023-11-21T06:02:46;67797.25;;;5.46;100.00
36354;BME280;22383;51.114;13.666;2023-11-21T06:05:14;67795.75;;;5.47;100.00
36354;BME280;22383;51.114;13.666;2023-11-21T06:07:41;67798.56;;;5.49;100.00
36354;BME280;22383;51.114;13.666;2023-11-21T06:10:08;67799.91;;;5.53;100.00
36354;BME280;22383;51.114;13.666;2023-11-21T06:12:38;67802.53;;;5.53;100.00
36354;BME280;22383;51.114;13.666;2023-11-21T06:15:08;67802.91;;;5.51;100.00
36354;BME280;22383;51.114;13.666;2023-11-21T06:17:36;67794.81;;;5.48;100.00
36354;BME280;22383;51.114;13.666;2023-11-21T06:20:04;67798.56;;;5.49;100.00
36354;BME280;22383;51.114;13.666;2023-11-21T06:22:37;67793.31;;;5.49;100.00
36354;BME280;22383;51.114;13.666;2023-11-21T06:25:05;67789.94;;;5.46;100.00
36354;BME280;22383;51.114;13.666;2023-11-21T06:27:37;67790.31;;;5.44;100.00
36354;BME280;22383;51.114;13.666;2023-11-21T06:30:05;67791.44;;;5.45;100.00
36354;BME280;22383;51.114;13.666;2023-11-21T06:32:33;67790.88;;;5.45;100.00
36354;BME280;22383;51.114;13.666;2023-11-21T06:35:04;67788.81;;;5.45;100.00
36354;BME280;22383;51.114;13.666;2023-11-21T06:37:32;67794.25;;;5.48;100.00
36354;BME280;22383;51.114;13.666;2023-11-21T06:40:00;67794.81;;;5.48;100.00
36354;BME280;22383;51.114;13.666;2023-11-21T06:42:27;67792.00;;;5.46;100.00
36354;BME280;22383;51.114;13.666;2023-11-21T06:44:56;67793.69;;;5.47;100.00
36354;BME280;22383;51.114;13.666;2023-11-21T06:47:25;67789.94;;;5.46;100.00
36354;BME280;22383;51.114;13.666;2023-11-21T06:49:52;67795.75;;;5.47;100.00
36354;BME280;22383;51.114;13.666;2023-11-21T06:52:20;67797.81;;;5.46;100.00
36354;BME280;22383;51.114;13.666;2023-11-21T06:54:48;67792.00;;;5.46;100.00
36354;BME280;22383;51.114;13.666;2023-11-21T06:57:17;67798.38;;;5.47;100.00
36354;BME280;22383;51.114;13.666;2023-11-21T06:59:44;67793.69;;;5.47;100.00
36354;BME280;22383;51.114;13.666;2023-11-21T07:02:11;67794.25;;;5.48;100.00
36354;BME280;22383;51.114;13.666;2023-11-21T07:04:39;67795.41;;;5.49;100.00
36354;BME280;22383;51.114;13.666;2023-11-21T07:07:06;67797.09;;;5.51;100.00
36354;BME280;22383;51.114;13.666;2023-11-21T07:09:34;67800.84;;;5.52;100.00
36354;BME280;22383;51.114;13.666;2023-11-21T07:12:02;67801.97;;;5.53;100.00
36354;BME280;22383;51.114;13.666;2023-11-21T07:14:31;67799.91;;;5.53;100.00
36354;BME280;22383;51.114;13.666;2023-11-21T07:16:59;67803.28;;;5.56;100.00
36354;BME280;22383;51.114;13.666;2023-11-21T07:19:26;67802.72;;;5.56;100.00
36354;BME280;22383;51.114;13.666;2023-11-21T07:21:53;67811.94;;;5.59;100.00
36354;BME280;22383;51.114;13.666;2023-11-21T07:24:20;67807.63;;;5.58;100.00
36354;BME280;22383;51.114;13.666;2023-11-21T07:26:49;67814.94;;;5.64;100.00
36354;BME280;22383;51.114;13.666;2023-11-21T07:29:16;67808.38;;;5.61;100.00
36354;BME280;22383;51.114;13.666;2023-11-21T07:31:43;67814.22;;;5.68;100.00
36354;BME280;22383;51.114;13.666;2023-11-21T07:34:11;67812.31;;;5.64;100.00
36354;BME280;22383;51.114;13.666;2023-11-21T07:36:39;67814.38;;;5.64;100.00
36354;BME280;22383;51.114;13.666;2023-11-21T07:39:06;67818.34;;;5.67;100.00
36354;BME280;22383;51.114;13.666;2023-11-21T07:41:33;67821.53;;;5.68;100.00
36354;BME280;22383;51.114;13.666;2023-11-21T07:44:00;67818.53;;;5.70;100.00
36354;BME280;22383;51.114;13.666;2023-11-21T07:46:28;67816.84;;;5.68;100.00
36354;BME280;22383;51.114;13.666;2023-11-21T07:48:55;67820.59;;;5.69;100.00
36354;BME280;22383;51.114;13.666;2023-11-21T07:51:23;67820.59;;;5.69;100.00
36354;BME280;22383;51.114;13.666;2023-11-21T07:53:50;67813.09;;;5.67;100.00
36354;BME280;22383;51.114;13.666;2023-11-21T07:56:17;67814.59;;;5.66;100.00
36354;BME280;22383;51.114;13.666;2023-11-21T07:58:44;67811.75;;;5.64;100.00
36354;BME280;22383;51.114;13.666;2023-11-21T08:01:12;67817.00;;;5.64;100.00
36354;BME280;22383;51.114;13.666;2023-11-21T08:03:39;67812.13;;;5.62;100.00
36354;BME280;22383;51.114;13.666;2023-11-21T08:06:07;67786.44;;;5.62;100.00
36354;BME280;22383;51.114;13.666;2023-11-21T08:08:34;67808.38;;;5.61;100.00
36354;BME280;22383;51.114;13.666;2023-11-21T08:11:01;67809.88;;;5.60;100.00
36354;BME280;22383;51.114;13.666;2023-11-21T08:13:31;67808.94;;;5.61;100.00
36354;BME280;22383;51.114;13.666;2023-11-21T08:15:58;67813.25;;;5.63;100.00
36354;BME280;22383;51.114;13.666;2023-11-21T08:18:29;67808.56;;;5.63;100.00
36354;BME280;22383;51.114;13.666;2023-11-21T08:20:57;67814.59;;;5.66;100.00
36354;BME280;22383;51.114;13.666;2023-11-21T08:23:24;67815.16;;;5.67;100.00
36354;BME280;22383;51.114;13.666;2023-11-21T08:25:53;67821.53;;;5.68;100.00
36354;BME280;22383;51.114;13.666;2023-11-21T08:28:21;67811.38;;;5.66;100.00
36354;BME280;22383;51.114;13.666;2023-11-21T08:30:50;67816.63;;;5.66;100.00
36354;BME280;22383;51.114;13.666;2023-11-21T08:33:17;67811.19;;;5.63;100.00
36354;BME280;22383;51.114;13.666;2023-11-21T08:35:44;67804.41;;;5.57;100.00
36354;BME280;22383;51.114;13.666;2023-11-21T08:38:13;67804.78;;;5.55;100.00
36354;BME280;22383;51.114;13.666;2023-11-21T08:40:40;67797.84;;;5.54;100.00
36354;BME280;22383;51.114;13.666;2023-11-21T08:43:07;67798.97;;;5.55;100.00
36354;BME280;22383;51.114;13.666;2023-11-21T08:45:35;67800.47;;;5.54;100.00
36354;BME280;22383;51.114;13.666;2023-11-21T08:48:02;67804.59;;;5.53;100.00
36354;BME280;22383;51.114;13.666;2023-11-21T08:50:30;67801.38;;;5.52;100.00
36354;BME280;22383;51.114;13.666;2023-11-21T08:52:57;67797.66;;;5.51;100.00
36354;BME280;22383;51.114;13.666;2023-11-21T08:55:24;67796.50;;;5.50;100.00
36354;BME280;22383;51.114;13.666;2023-11-21T08:57:51;67798.22;;;5.52;100.00
36354;BME280;22383;51.114;13.666;2023-11-21T09:00:18;67799.72;;;5.51;100.00
36354;BME280;22383;51.114;13.666;2023-11-21T09:02:46;67796.88;;;5.48;100.00
36354;BME280;22383;51.114;13.666;2023-11-21T09:05:14;67798.22;;;5.52;100.00
36354;BME280;22383;51.114;13.666;2023-11-21T09:07:42;67798.75;;;5.52;100.00
36354;BME280;22383;51.114;13.666;2023-11-21T09:10:10;67803.84;;;5.57;100.00
36354;BME280;22383;51.114;13.666;2023-11-21T09:12:37;67811.56;;;5.61;100.00
36354;BME280;22383;51.114;13.666;2023-11-21T09:15:06;67806.69;;;5.59;100.00
36354;BME280;22383;51.114;13.666;2023-11-21T09:17:33;67813.81;;;5.63;100.00
36354;BME280;22383;51.114;13.666;2023-11-21T09:20:02;67801.19;;;5.49;100.00
36354;BME280;22383;51.114;13.666;2023-11-21T09:22:32;67776.75;;;5.32;100.00
36354;BME280;22383;51.114;13.666;2023-11-21T09:25:00;67768.84;;;5.25;100.00
36354;BME280;22383;51.114;13.666;2023-11-21T09:27:27;67757.94;;;5.13;100.00
36354;BME280;22383;51.114;13.666;2023-11-21T09:29:54;67754.16;;;5.11;100.00
36354;BME280;22383;51.114;13.666;2023-11-21T09:32:22;67747.41;;;5.05;100.00
36354;BME280;22383;51.114;13.666;2023-11-21T09:34:49;67746.09;;;5.02;100.00
36354;BME280;22383;51.114;13.666;2023-11-21T09:37:17;67738.38;;;4.97;100.00
36354;BME280;22383;51.114;13.666;2023-11-21T09:39:46;67729.34;;;4.89;100.00
36354;BME280;22383;51.114;13.666;2023-11-21T09:42:36;67721.63;;;4.77;100.00
36354;BME280;22383;51.114;13.666;2023-11-21T09:45:18;67699.81;;;4.60;100.00
36354;BME280;22383;51.114;13.666;2023-11-21T09:47:48;67686.84;;;4.48;100.00
36354;BME280;22383;51.114;13.666;2023-11-21T09:50:17;67677.28;;;4.46;100.00
36354;BME280;22383;51.114;13.666;2023-11-21T09:53:18;67675.75;;;4.40;100.00
36354;BME280;22383;51.114;13.666;2023-11-21T09:55:53;67658.06;;;4.22;100.00
36354;BME280;22383;51.114;13.666;2023-11-21T09:58:21;67649.59;;;4.14;100.00
36354;BME280;22383;51.114;13.666;2023-11-21T10:00:53;67657.50;;;4.21;100.00
36354;BME280;22383;51.114;13.666;2023-11-21T10:03:21;67651.66;;;4.13;100.00
36354;BME280;22383;51.114;13.666;2023-11-21T10:05:50;67635.13;;;4.03;100.00
36354;BME280;22383;51.114;13.666;2023-11-21T10:08:18;67622.94;;;3.94;100.00
36354;BME280;22383;51.114;13.666;2023-11-21T10:10:49;67621.81;;;3.93;100.00
36354;BME280;22383;51.114;13.666;2023-11-21T10:13:19;67618.97;;;3.91;100.00
36354;BME280;22383;51.114;13.666;2023-11-21T10:15:50;67625.56;;;3.94;100.00
36354;BME280;22383;51.114;13.666;2023-11-21T10:18:18;67633.81;;;4.00;100.00
36354;BME280;22383;51.114;13.666;2023-11-21T10:20:45;67637.41;;;4.05;100.00
36354;BME280;22383;51.114;13.666;2023-11-21T10:23:23;67634.38;;;4.00;100.00
36354;BME280;22383;51.114;13.666;2023-11-21T10:25:52;67630.06;;;3.98;100.00
36354;BME280;22383;51.114;13.666;2023-11-21T10:28:21;67626.69;;;3.95;100.00
36354;BME280;22383;51.114;13.666;2023-11-21T10:30:49;67607.50;;;3.78;100.00
36354;BME280;22383;51.114;13.666;2023-11-21T10:33:16;67595.88;;;3.70;100.00
36354;BME280;22383;51.114;13.666;2023-11-21T10:35:45;67594.53;;;3.66;100.00
36354;BME280;22383;51.114;13.666;2023-11-21T10:38:21;67604.09;;;3.68;100.00
36354;BME280;22383;51.114;13.666;2023-11-21T10:40:51;67594.34;;;3.64;100.00
36354;BME280;22383;51.114;13.666;2023-11-21T10:43:19;67583.84;;;3.56;100.00
36354;BME280;22383;51.114;13.666;2023-11-21T10:45:46;67589.63;;;3.57;100.00
36354;BME280;22383;51.114;13.666;2023-11-21T10:48:14;67593.44;;;3.65;100.00
36354;BME280;22383;51.114;13.666;2023-11-21T10:50:44;67590.41;;;3.60;100.00
36354;BME280;22383;51.114;13.666;2023-11-21T10:53:12;67588.16;;;3.58;100.00
36354;BME280;22383;51.114;13.666;2023-11-21T10:55:40;67582.50;;;3.53;100.00
36354;BME280;22383;51.114;13.666;2023-11-21T10:58:09;67577.44;;;3.48;100.00
36354;BME280;22383;51.114;13.666;2023-11-21T11:00:38;67577.28;;;3.53;100.00
36354;BME280;22383;51.114;13.666;2023-11-21T11:03:07;67575.19;;;3.46;100.00
36354;BME280;22383;51.114;13.666;2023-11-21T11:05:44;67568.22;;;3.37;100.00
36354;BME280;22383;51.114;13.666;2023-11-21T11:08:22;67560.72;;;3.35;100.00
36354;BME280;22383;51.114;13.666;2023-11-21T11:10:55;67564.28;;;3.34;100.00
36354;BME280;22383;51.114;13.666;2023-11-21T11:13:22;67561.44;;;3.31;100.00
36354;BME280;22383;51.114;13.666;2023-11-21T11:15:51;67553.81;;;3.34;100.00
36354;BME280;22383;51.114;13.666;2023-11-21T11:18:23;67565.59;;;3.37;100.00
36354;BME280;22383;51.114;13.666;2023-11-21T11:20:51;67562.97;;;3.37;100.00
36354;BME280;22383;51.114;13.666;2023-11-21T11:26:32;67549.81;;;3.23;100.00
36354;BME280;22383;51.114;13.666;2023-11-21T11:29:26;67541.41;;;3.22;100.00
36354;BME280;22383;51.114;13.666;2023-11-21T11:34:56;67535.72;;;3.10;100.00
36354;BME280;22383;51.114;13.666;2023-11-21T11:37:28;67526.56;;;3.07;100.00
36354;BME280;22383;51.114;13.666;2023-11-21T11:39:56;67529.88;;;3.02;100.00
36354;BME280;22383;51.114;13.666;2023-11-21T11:42:24;67533.47;;;3.08;100.00
36354;BME280;22383;51.114;13.666;2023-11-21T11:44:51;67535.56;;;3.15;100.00
36354;BME280;22383;51.114;13.666;2023-11-21T11:47:24;67537.63;;;3.14;100.00
36354;BME280;22383;51.114;13.666;2023-11-21T11:50:10;67525.22;;;3.03;100.00
36354;BME280;22383;51.114;13.666;2023-11-21T11:52:44;67530.84;;;3.08;100.00
36354;BME280;22383;51.114;13.666;2023-11-21T11:55:13;67532.56;;;3.10;100.00
36354;BME280;22383;51.114;13.666;2023-11-21T11:57:42;67537.22;;;3.09;100.00
36354;BME280;22383;51.114;13.666;2023-11-21T12:00:17;67526.50;;;2.99;100.00
36354;BME280;22383;51.114;13.666;2023-11-21T12:02:50;67523.13;;;2.96;100.00
36354;BME280;22383;51.114;13.666;2023-11-21T12:05:20;67521.66;;;2.97;100.00
36354;BME280;22383;51.114;13.666;2023-11-21T12:07:50;67523.91;;;2.99;100.00
36354;BME280;22383;51.114;13.666;2023-11-21T12:10:21;67516.56;;;2.93;100.00
36354;BME280;22383;51.114;13.666;2023-11-21T12:13:03;67514.69;;;2.89;100.00
36354;BME280;22383;51.114;13.666;2023-11-21T12:15:31;67502.34;;;2.84;100.00
36354;BME280;22383;51.114;13.666;2023-11-21T12:17:59;67507.56;;;2.84;100.00
36354;BME280;22383;51.114;13.666;2023-11-21T12:20:27;67510.38;;;2.87;100.00
36354;BME280;22383;51.114;13.666;2023-11-21T12:22:57;67517.69;;;2.94;100.00
36354;BME280;22383;51.114;13.666;2023-11-21T12:25:28;67518.84;;;2.95;100.00
36354;BME280;22383;51.114;13.666;2023-11-21T12:27:56;67513.94;;;2.93;100.00
36354;BME280;22383;51.114;13.666;2023-11-21T12:30:25;67515.09;;;2.94;100.00
36354;BME280;22383;51.114;13.666;2023-11-21T12:32:55;67519.03;;;2.97;100.00
36354;BME280;22383;51.114;13.666;2023-11-21T12:35:27;67522.19;;;2.98;100.00
36354;BME280;22383;51.114;13.666;2023-11-21T12:37:56;67521.78;;;2.93;100.00
36354;BME280;22383;51.114;13.666;2023-11-21T12:40:26;67517.91;;;2.96;100.00
36354;BME280;22383;51.114;13.666;2023-11-21T12:42:56;67523.34;;;2.99;100.00
36354;BME280;22383;51.114;13.666;2023-11-21T12:45:25;67527.09;;;3.00;100.00
36354;BME280;22383;51.114;13.666;2023-11-21T12:48:05;67534.38;;;3.07;100.00
36354;BME280;22383;51.114;13.666;2023-11-21T12:50:38;67522.41;;;3.00;100.00
36354;BME280;22383;51.114;13.666;2023-11-21T12:53:12;67508.34;;;2.88;100.00
36354;BME280;22383;51.114;13.666;2023-11-21T12:55:40;67513.19;;;2.90;100.00
36354;BME280;22383;51.114;13.666;2023-11-21T12:58:09;67502.50;;;2.80;100.00
36354;BME280;22383;51.114;13.666;2023-11-21T13:00:42;67504.31;;;2.77;100.00
36354;BME280;22383;51.114;13.666;2023-11-21T13:03:11;67489.53;;;2.68;100.00
36354;BME280;22383;51.114;13.666;2023-11-21T13:05:40;67486.16;;;2.65;100.00